N440WF KSDL-KSBP
Flight info
| Callsign | N440WF |
|---|---|
| Flight time | N/A |
| Altitude | 16000 |
| Route | PXR |
| Aircraft | B58T/L-G/S |
Departure
| Time | 2026-04-24 02:56 |
|---|---|
| Airport | Scottsdale Airport (KSDL) |
Arrival
| Time | N/A |
|---|---|
| Airport | San Luis County Regional Airport (KSBP) |
| Time | Latitude | Longitude | Altitude | Speed | Heading |
|---|---|---|---|---|---|
| 2026-04-24 02:46 | 33.62203 | -111.91455 | 1462 ft | 0 kts | 315° |
| 2026-04-24 02:53 | 33.62212 | -111.91453 | 1463 ft | 7 kts | 58° |
| 2026-04-24 02:53 | 33.62206 | -111.91374 | 1459 ft | 8 kts | 123° |
| 2026-04-24 02:53 | 33.62213 | -111.91302 | 1465 ft | 12 kts | 49° |
| 2026-04-24 02:53 | 33.62265 | -111.91209 | 1464 ft | 14 kts | 95° |
| 2026-04-24 02:54 | 33.62322 | -111.91130 | 1473 ft | 12 kts | 45° |
| 2026-04-24 02:54 | 33.62368 | -111.91076 | 1472 ft | 7 kts | 41° |
| 2026-04-24 02:54 | 33.62407 | -111.91032 | 1480 ft | 10 kts | 46° |
| 2026-04-24 02:54 | 33.62453 | -111.90978 | 1482 ft | 0 kts | 45° |
| 2026-04-24 02:55 | 33.62456 | -111.90952 | 1477 ft | 16 kts | 110° |
| 2026-04-24 02:55 | 33.62372 | -111.90959 | 1478 ft | 37 kts | 225° |
| 2026-04-24 02:56 | 33.61986 | -111.91405 | 1463 ft | 107 kts | 223° |
| 2026-04-24 02:56 | 33.61366 | -111.92096 | 1614 ft | 129 kts | 222° |
| 2026-04-24 02:56 | 33.60685 | -111.92825 | 1874 ft | 134 kts | 222° |
| 2026-04-24 02:56 | 33.59985 | -111.93573 | 2127 ft | 135 kts | 222° |
| 2026-04-24 02:57 | 33.59276 | -111.94332 | 2378 ft | 138 kts | 222° |
| 2026-04-24 02:57 | 33.58749 | -111.95273 | 2624 ft | 143 kts | 257° |
| 2026-04-24 02:57 | 33.58590 | -111.96490 | 2877 ft | 151 kts | 263° |
| 2026-04-24 02:57 | 33.58496 | -111.97760 | 3131 ft | 155 kts | 265° |
| 2026-04-24 02:58 | 33.58435 | -111.99053 | 3380 ft | 156 kts | 265° |
| 2026-04-24 02:58 | 33.58386 | -112.00354 | 3627 ft | 157 kts | 266° |
| 2026-04-24 02:58 | 33.58344 | -112.01666 | 3877 ft | 158 kts | 266° |
| 2026-04-24 02:58 | 33.58306 | -112.02981 | 4130 ft | 158 kts | 266° |
| 2026-04-24 02:59 | 33.58269 | -112.04301 | 4356 ft | 158 kts | 266° |
| 2026-04-24 02:59 | 33.58240 | -112.05629 | 4626 ft | 160 kts | 271° |
| 2026-04-24 02:59 | 33.58476 | -112.06924 | 4868 ft | 162 kts | 286° |
| 2026-04-24 02:59 | 33.58857 | -112.08200 | 5132 ft | 163 kts | 287° |
| 2026-04-24 03:00 | 33.59222 | -112.09492 | 5387 ft | 164 kts | 285° |
| 2026-04-24 03:00 | 33.59561 | -112.10804 | 5634 ft | 165 kts | 284° |
| 2026-04-24 03:00 | 33.59889 | -112.12125 | 5881 ft | 165 kts | 284° |
| 2026-04-24 03:00 | 33.60204 | -112.13446 | 6127 ft | 165 kts | 283° |
| 2026-04-24 03:01 | 33.60515 | -112.14779 | 6373 ft | 166 kts | 283° |
| 2026-04-24 03:01 | 33.60825 | -112.16113 | 6627 ft | 166 kts | 283° |
| 2026-04-24 03:01 | 33.61134 | -112.17448 | 6880 ft | 166 kts | 283° |
| 2026-04-24 03:01 | 33.61444 | -112.18791 | 7128 ft | 168 kts | 283° |
| 2026-04-24 03:02 | 33.61756 | -112.20137 | 7379 ft | 167 kts | 283° |
| 2026-04-24 03:02 | 33.62066 | -112.21480 | 7629 ft | 167 kts | 283° |
| 2026-04-24 03:02 | 33.62375 | -112.22828 | 7880 ft | 167 kts | 283° |
| 2026-04-24 03:02 | 33.62685 | -112.24176 | 8131 ft | 168 kts | 282° |
| 2026-04-24 03:03 | 33.62991 | -112.25510 | 8377 ft | 167 kts | 282° |
| 2026-04-24 03:03 | 33.63303 | -112.26862 | 8629 ft | 168 kts | 282° |
| 2026-04-24 03:03 | 33.63615 | -112.28220 | 8880 ft | 169 kts | 282° |
| 2026-04-24 03:03 | 33.63927 | -112.29580 | 9132 ft | 169 kts | 282° |
| 2026-04-24 03:04 | 33.64240 | -112.30943 | 9386 ft | 169 kts | 282° |
| 2026-04-24 03:04 | 33.64553 | -112.32304 | 9634 ft | 169 kts | 282° |
| 2026-04-24 03:04 | 33.64865 | -112.33664 | 9884 ft | 170 kts | 282° |
| 2026-04-24 03:04 | 33.65176 | -112.35022 | 10133 ft | 168 kts | 282° |
| 2026-04-24 03:05 | 33.65484 | -112.36379 | 10384 ft | 168 kts | 282° |
| 2026-04-24 03:05 | 33.65794 | -112.37733 | 10633 ft | 168 kts | 283° |
| 2026-04-24 03:05 | 33.66106 | -112.39089 | 10884 ft | 169 kts | 283° |
| 2026-04-24 03:05 | 33.66417 | -112.40446 | 11135 ft | 169 kts | 283° |
| 2026-04-24 03:06 | 33.66727 | -112.41804 | 11386 ft | 169 kts | 283° |
| 2026-04-24 03:06 | 33.67038 | -112.43163 | 11636 ft | 169 kts | 283° |
| 2026-04-24 03:06 | 33.67348 | -112.44523 | 11884 ft | 169 kts | 283° |
| 2026-04-24 03:06 | 33.67658 | -112.45882 | 12137 ft | 169 kts | 283° |
| 2026-04-24 03:07 | 33.67967 | -112.47238 | 12390 ft | 168 kts | 283° |
| 2026-04-24 03:07 | 33.68276 | -112.48593 | 12642 ft | 168 kts | 283° |
| 2026-04-24 03:07 | 33.68584 | -112.49947 | 12891 ft | 168 kts | 283° |
| 2026-04-24 03:07 | 33.68893 | -112.51305 | 13140 ft | 168 kts | 283° |
| 2026-04-24 03:08 | 33.69201 | -112.52659 | 13390 ft | 168 kts | 283° |
| 2026-04-24 03:08 | 33.69817 | -112.55368 | 13892 ft | 168 kts | 282° |
| 2026-04-24 03:08 | 33.70121 | -112.56709 | 14141 ft | 168 kts | 282° |
| 2026-04-24 03:09 | 33.70430 | -112.58067 | 14393 ft | 169 kts | 282° |
| 2026-04-24 03:09 | 33.70738 | -112.59426 | 14645 ft | 169 kts | 282° |
| 2026-04-24 03:09 | 33.71046 | -112.60786 | 14895 ft | 168 kts | 282° |
| 2026-04-24 03:09 | 33.71352 | -112.62141 | 15138 ft | 168 kts | 282° |
| 2026-04-24 03:10 | 33.71659 | -112.63498 | 15390 ft | 168 kts | 282° |
| 2026-04-24 03:10 | 33.71967 | -112.64856 | 15642 ft | 168 kts | 282° |
| 2026-04-24 03:10 | 33.72275 | -112.66217 | 15895 ft | 168 kts | 282° |
| 2026-04-24 03:10 | 33.72588 | -112.67609 | 15970 ft | 177 kts | 282° |
| 2026-04-24 03:11 | 33.72918 | -112.69070 | 15987 ft | 185 kts | 282° |
| 2026-04-24 03:11 | 33.73258 | -112.70577 | 15995 ft | 189 kts | 283° |
| 2026-04-24 03:11 | 33.73609 | -112.72114 | 16004 ft | 193 kts | 283° |
| 2026-04-24 03:11 | 33.73964 | -112.73675 | 16006 ft | 195 kts | 283° |
| 2026-04-24 03:12 | 33.74320 | -112.75252 | 16008 ft | 196 kts | 283° |
| 2026-04-24 03:12 | 33.74679 | -112.76839 | 16005 ft | 197 kts | 283° |
| 2026-04-24 03:12 | 33.75038 | -112.78433 | 16002 ft | 198 kts | 283° |
| 2026-04-24 03:12 | 33.75399 | -112.80030 | 16000 ft | 198 kts | 283° |
| 2026-04-24 03:13 | 33.75760 | -112.81634 | 16002 ft | 198 kts | 283° |
| 2026-04-24 03:13 | 33.76120 | -112.83230 | 16006 ft | 198 kts | 283° |
| 2026-04-24 03:13 | 33.76480 | -112.84832 | 16007 ft | 199 kts | 283° |
| 2026-04-24 03:13 | 33.76834 | -112.86416 | 16008 ft | 199 kts | 283° |
| 2026-04-24 03:14 | 33.77195 | -112.88023 | 16009 ft | 199 kts | 283° |
| 2026-04-24 03:14 | 33.77556 | -112.89632 | 16008 ft | 198 kts | 283° |
| 2026-04-24 03:14 | 33.77916 | -112.91237 | 16008 ft | 198 kts | 283° |
| 2026-04-24 03:14 | 33.78274 | -112.92837 | 16008 ft | 198 kts | 283° |
| 2026-04-24 03:15 | 33.78631 | -112.94435 | 16009 ft | 198 kts | 283° |
| 2026-04-24 03:15 | 33.78987 | -112.96034 | 16010 ft | 199 kts | 282° |
| 2026-04-24 03:15 | 33.79344 | -112.97637 | 16010 ft | 198 kts | 283° |
| 2026-04-24 03:15 | 33.79703 | -112.99243 | 16009 ft | 198 kts | 283° |
| 2026-04-24 03:16 | 33.80062 | -113.00845 | 16009 ft | 198 kts | 283° |
| 2026-04-24 03:16 | 33.80419 | -113.02446 | 16008 ft | 198 kts | 283° |
| 2026-04-24 03:16 | 33.80772 | -113.04029 | 16006 ft | 198 kts | 283° |
| 2026-04-24 03:16 | 33.81129 | -113.05627 | 16015 ft | 198 kts | 283° |
| 2026-04-24 03:17 | 33.81487 | -113.07233 | 16011 ft | 198 kts | 283° |
| 2026-04-24 03:17 | 33.81843 | -113.08834 | 16011 ft | 198 kts | 282° |
| 2026-04-24 03:17 | 33.82198 | -113.10438 | 16010 ft | 199 kts | 283° |
| 2026-04-24 03:17 | 33.82554 | -113.12043 | 16009 ft | 199 kts | 283° |
| 2026-04-24 03:18 | 33.82910 | -113.13648 | 16009 ft | 199 kts | 283° |
| 2026-04-24 03:18 | 33.83265 | -113.15250 | 16010 ft | 199 kts | 283° |
| 2026-04-24 03:18 | 33.83621 | -113.16860 | 16009 ft | 199 kts | 283° |
| 2026-04-24 03:18 | 33.83977 | -113.18463 | 16008 ft | 199 kts | 282° |
| 2026-04-24 03:19 | 33.84332 | -113.20068 | 16008 ft | 199 kts | 282° |
| 2026-04-24 03:19 | 33.84688 | -113.21672 | 16004 ft | 198 kts | 282° |
| 2026-04-24 03:19 | 33.85041 | -113.23274 | 16018 ft | 199 kts | 282° |
| 2026-04-24 03:19 | 33.85397 | -113.24886 | 16014 ft | 199 kts | 282° |
| 2026-04-24 03:20 | 33.85743 | -113.26488 | 15992 ft | 196 kts | 282° |
| 2026-04-24 03:20 | 33.86098 | -113.28075 | 16015 ft | 196 kts | 283° |
| 2026-04-24 03:20 | 33.86446 | -113.29658 | 16019 ft | 196 kts | 282° |
| 2026-04-24 03:20 | 33.86796 | -113.31244 | 16028 ft | 197 kts | 283° |
| 2026-04-24 03:21 | 33.87145 | -113.32819 | 16027 ft | 198 kts | 283° |
| 2026-04-24 03:21 | 33.87499 | -113.34423 | 16023 ft | 199 kts | 283° |
| 2026-04-24 03:21 | 33.87854 | -113.36032 | 16014 ft | 199 kts | 283° |
| 2026-04-24 03:21 | 33.88210 | -113.37647 | 16010 ft | 199 kts | 283° |
| 2026-04-24 03:22 | 33.88562 | -113.39259 | 16009 ft | 199 kts | 282° |
| 2026-04-24 03:22 | 33.88915 | -113.40871 | 16010 ft | 199 kts | 282° |
| 2026-04-24 03:22 | 33.89269 | -113.42485 | 16010 ft | 199 kts | 283° |
| 2026-04-24 03:22 | 33.89621 | -113.44093 | 16008 ft | 199 kts | 282° |
| 2026-04-24 03:23 | 33.89975 | -113.45705 | 16008 ft | 199 kts | 282° |
| 2026-04-24 03:23 | 33.90326 | -113.47312 | 16008 ft | 198 kts | 282° |
| 2026-04-24 03:23 | 33.90677 | -113.48917 | 16008 ft | 198 kts | 282° |
| 2026-04-24 03:23 | 33.90908 | -113.49979 | 16008 ft | 198 kts | 282° |
| 2026-04-24 03:24 | 33.91375 | -113.52122 | 16008 ft | 198 kts | 282° |
| 2026-04-24 03:24 | 33.91725 | -113.53723 | 16009 ft | 198 kts | 282° |
| 2026-04-24 03:24 | 33.92075 | -113.55326 | 16010 ft | 198 kts | 282° |
| 2026-04-24 03:24 | 33.92425 | -113.56930 | 16008 ft | 198 kts | 282° |
| 2026-04-24 03:25 | 33.92774 | -113.58532 | 16002 ft | 197 kts | 282° |
| 2026-04-24 03:25 | 33.93117 | -113.60128 | 16001 ft | 197 kts | 282° |
| 2026-04-24 03:25 | 33.93459 | -113.61718 | 16013 ft | 197 kts | 282° |
| 2026-04-24 03:25 | 33.93807 | -113.63296 | 16017 ft | 198 kts | 283° |
| 2026-04-24 03:26 | 33.94166 | -113.64932 | 16013 ft | 199 kts | 282° |
| 2026-04-24 03:26 | 33.94518 | -113.66546 | 16009 ft | 199 kts | 282° |
| 2026-04-24 03:26 | 33.94863 | -113.68137 | 16008 ft | 199 kts | 282° |
| 2026-04-24 03:26 | 33.95213 | -113.69756 | 16006 ft | 199 kts | 282° |
| 2026-04-24 03:27 | 33.95562 | -113.71374 | 16006 ft | 199 kts | 282° |
| 2026-04-24 03:27 | 33.95911 | -113.72988 | 16006 ft | 199 kts | 282° |
| 2026-04-24 03:27 | 33.96258 | -113.74596 | 16006 ft | 199 kts | 282° |
| 2026-04-24 03:27 | 33.96608 | -113.76212 | 16007 ft | 199 kts | 282° |
| 2026-04-24 03:28 | 33.96956 | -113.77823 | 16006 ft | 199 kts | 282° |
| 2026-04-24 03:28 | 33.97304 | -113.79435 | 16001 ft | 199 kts | 282° |
| 2026-04-24 03:28 | 33.97652 | -113.81047 | 15999 ft | 199 kts | 282° |
| 2026-04-24 03:28 | 33.97998 | -113.82654 | 15998 ft | 199 kts | 282° |
| 2026-04-24 03:29 | 33.98345 | -113.84264 | 15998 ft | 198 kts | 282° |
| 2026-04-24 03:29 | 33.98691 | -113.85876 | 15999 ft | 198 kts | 282° |
| 2026-04-24 03:29 | 33.99035 | -113.87475 | 16078 ft | 195 kts | 282° |
| 2026-04-24 03:29 | 33.99373 | -113.89040 | 16208 ft | 191 kts | 282° |
| 2026-04-24 03:30 | 33.99703 | -113.90579 | 16334 ft | 189 kts | 282° |
| 2026-04-24 03:30 | 34.00031 | -113.92111 | 16464 ft | 188 kts | 282° |
| 2026-04-24 03:30 | 34.00352 | -113.93604 | 16484 ft | 179 kts | 282° |
| 2026-04-24 03:30 | 34.00661 | -113.95029 | 16489 ft | 173 kts | 282° |
| 2026-04-24 03:31 | 34.00960 | -113.96419 | 16491 ft | 170 kts | 282° |
| 2026-04-24 03:31 | 34.01252 | -113.97791 | 16493 ft | 168 kts | 282° |
| 2026-04-24 03:31 | 34.01542 | -113.99150 | 16494 ft | 167 kts | 282° |
| 2026-04-24 03:31 | 34.01831 | -114.00503 | 16492 ft | 166 kts | 282° |
| 2026-04-24 03:32 | 34.02119 | -114.01854 | 16490 ft | 166 kts | 282° |
| 2026-04-24 03:32 | 34.02407 | -114.03205 | 16491 ft | 166 kts | 282° |
| 2026-04-24 03:32 | 34.02693 | -114.04548 | 16489 ft | 166 kts | 282° |
| 2026-04-24 03:32 | 34.02979 | -114.05894 | 16489 ft | 166 kts | 282° |
| 2026-04-24 03:33 | 34.03266 | -114.07239 | 16491 ft | 166 kts | 282° |
| 2026-04-24 03:33 | 34.03554 | -114.08589 | 16488 ft | 166 kts | 282° |
| 2026-04-24 03:33 | 34.03836 | -114.09919 | 16488 ft | 166 kts | 282° |
| 2026-04-24 03:33 | 34.04123 | -114.11266 | 16490 ft | 166 kts | 282° |
| 2026-04-24 03:34 | 34.04409 | -114.12614 | 16489 ft | 166 kts | 282° |
| 2026-04-24 03:34 | 34.04695 | -114.13962 | 16489 ft | 166 kts | 282° |
| 2026-04-24 03:34 | 34.04981 | -114.15311 | 16488 ft | 166 kts | 282° |
| 2026-04-24 03:34 | 34.05268 | -114.16660 | 16488 ft | 166 kts | 282° |
| 2026-04-24 03:35 | 34.05555 | -114.18008 | 16489 ft | 166 kts | 282° |
| 2026-04-24 03:35 | 34.05841 | -114.19355 | 16490 ft | 166 kts | 282° |
| 2026-04-24 03:35 | 34.06127 | -114.20700 | 16491 ft | 166 kts | 282° |
| 2026-04-24 03:35 | 34.06414 | -114.22051 | 16490 ft | 166 kts | 282° |
| 2026-04-24 03:36 | 34.06699 | -114.23404 | 16489 ft | 167 kts | 282° |
| 2026-04-24 03:36 | 34.06889 | -114.24303 | 16489 ft | 167 kts | 282° |
| 2026-04-24 03:36 | 34.07273 | -114.26118 | 16487 ft | 167 kts | 282° |
| 2026-04-24 03:36 | 34.07464 | -114.27016 | 16487 ft | 167 kts | 282° |
| 2026-04-24 03:37 | 34.07751 | -114.28372 | 16488 ft | 167 kts | 282° |
| 2026-04-24 03:37 | 34.08036 | -114.29733 | 16489 ft | 167 kts | 282° |
| 2026-04-24 03:37 | 34.08323 | -114.31092 | 16483 ft | 170 kts | 282° |
| 2026-04-24 03:37 | 34.08618 | -114.32514 | 16486 ft | 180 kts | 282° |
| 2026-04-24 03:38 | 34.08928 | -114.34006 | 16490 ft | 186 kts | 282° |
| 2026-04-24 03:38 | 34.09251 | -114.35543 | 16492 ft | 191 kts | 282° |
| 2026-04-24 03:38 | 34.09582 | -114.37111 | 16491 ft | 194 kts | 282° |
| 2026-04-24 03:38 | 34.09919 | -114.38702 | 16485 ft | 197 kts | 282° |
| 2026-04-24 03:39 | 34.10260 | -114.40315 | 16482 ft | 199 kts | 282° |
| 2026-04-24 03:39 | 34.10601 | -114.41933 | 16480 ft | 199 kts | 282° |
| 2026-04-24 03:39 | 34.10938 | -114.43534 | 16479 ft | 200 kts | 282° |
| 2026-04-24 03:39 | 34.11280 | -114.45160 | 16478 ft | 200 kts | 282° |
| 2026-04-24 03:40 | 34.11738 | -114.47338 | 16479 ft | 200 kts | 282° |
| 2026-04-24 03:40 | 34.11963 | -114.48414 | 16479 ft | 200 kts | 282° |
| 2026-04-24 03:40 | 34.12305 | -114.50042 | 16478 ft | 200 kts | 282° |
| 2026-04-24 03:40 | 34.12647 | -114.51673 | 16478 ft | 201 kts | 282° |
| 2026-04-24 03:41 | 34.12989 | -114.53309 | 16478 ft | 201 kts | 282° |
| 2026-04-24 03:41 | 34.13329 | -114.54938 | 16479 ft | 201 kts | 282° |
| 2026-04-24 03:41 | 34.13671 | -114.56575 | 16479 ft | 201 kts | 282° |
| 2026-04-24 03:41 | 34.14012 | -114.58207 | 16479 ft | 201 kts | 282° |
| 2026-04-24 03:42 | 34.14353 | -114.59844 | 16479 ft | 201 kts | 282° |
| 2026-04-24 03:42 | 34.14692 | -114.61480 | 16479 ft | 201 kts | 282° |
| 2026-04-24 03:42 | 34.15032 | -114.63118 | 16481 ft | 201 kts | 282° |
| 2026-04-24 03:42 | 34.15373 | -114.64757 | 16485 ft | 201 kts | 282° |
| 2026-04-24 03:43 | 34.15714 | -114.66397 | 16487 ft | 202 kts | 282° |
| 2026-04-24 03:43 | 34.16055 | -114.68040 | 16488 ft | 202 kts | 282° |
| 2026-04-24 03:43 | 34.16396 | -114.69683 | 16488 ft | 202 kts | 282° |
| 2026-04-24 03:43 | 34.16737 | -114.71326 | 16487 ft | 201 kts | 282° |
| 2026-04-24 03:44 | 34.17078 | -114.72968 | 16487 ft | 202 kts | 282° |
| 2026-04-24 03:44 | 34.17418 | -114.74614 | 16488 ft | 202 kts | 282° |
| 2026-04-24 03:44 | 34.17759 | -114.76257 | 16483 ft | 201 kts | 282° |
| 2026-04-24 03:44 | 34.17984 | -114.77346 | 16485 ft | 201 kts | 282° |
| 2026-04-24 03:45 | 34.18436 | -114.79538 | 16486 ft | 201 kts | 282° |
| 2026-04-24 03:45 | 34.18775 | -114.81175 | 16495 ft | 201 kts | 282° |
| 2026-04-24 03:45 | 34.19113 | -114.82810 | 16487 ft | 201 kts | 282° |
| 2026-04-24 03:45 | 34.19449 | -114.84453 | 16495 ft | 202 kts | 282° |
| 2026-04-24 03:46 | 34.19786 | -114.86104 | 16498 ft | 203 kts | 282° |
| 2026-04-24 03:46 | 34.20129 | -114.87764 | 16495 ft | 204 kts | 282° |
| 2026-04-24 03:46 | 34.20474 | -114.89432 | 16495 ft | 204 kts | 282° |
| 2026-04-24 03:46 | 34.20817 | -114.91097 | 16497 ft | 204 kts | 282° |
| 2026-04-24 03:47 | 34.21161 | -114.92762 | 16498 ft | 205 kts | 282° |
| 2026-04-24 03:47 | 34.21507 | -114.94438 | 16498 ft | 205 kts | 282° |
| 2026-04-24 03:47 | 34.21845 | -114.96088 | 16498 ft | 205 kts | 282° |
| 2026-04-24 03:47 | 34.22187 | -114.97760 | 16498 ft | 205 kts | 282° |
| 2026-04-24 03:48 | 34.22530 | -114.99430 | 16502 ft | 205 kts | 282° |
| 2026-04-24 03:48 | 34.22871 | -115.01104 | 16503 ft | 205 kts | 282° |
| 2026-04-24 03:48 | 34.23213 | -115.02773 | 16505 ft | 205 kts | 282° |
| 2026-04-24 03:48 | 34.23554 | -115.04441 | 16506 ft | 204 kts | 282° |
| 2026-04-24 03:49 | 34.23894 | -115.06108 | 16504 ft | 204 kts | 282° |
| 2026-04-24 03:49 | 34.24233 | -115.07774 | 16505 ft | 204 kts | 282° |
| 2026-04-24 03:49 | 34.24572 | -115.09438 | 16506 ft | 204 kts | 282° |
| 2026-04-24 03:49 | 34.24910 | -115.11102 | 16505 ft | 204 kts | 282° |
| 2026-04-24 03:50 | 34.25249 | -115.12765 | 16508 ft | 204 kts | 282° |
| 2026-04-24 03:50 | 34.25588 | -115.14428 | 16507 ft | 204 kts | 282° |
| 2026-04-24 03:50 | 34.25927 | -115.16092 | 16513 ft | 204 kts | 282° |
| 2026-04-24 03:50 | 34.26264 | -115.17754 | 16515 ft | 204 kts | 282° |
| 2026-04-24 03:51 | 34.26603 | -115.19424 | 16516 ft | 204 kts | 282° |
| 2026-04-24 03:51 | 34.26941 | -115.21089 | 16516 ft | 204 kts | 282° |
| 2026-04-24 03:51 | 34.27278 | -115.22752 | 16516 ft | 204 kts | 282° |
| 2026-04-24 03:51 | 34.27616 | -115.24416 | 16516 ft | 204 kts | 282° |
| 2026-04-24 03:52 | 34.27952 | -115.26080 | 16518 ft | 204 kts | 282° |
| 2026-04-24 03:52 | 34.28288 | -115.27741 | 16521 ft | 203 kts | 282° |
| 2026-04-24 03:52 | 34.28623 | -115.29403 | 16522 ft | 203 kts | 282° |
| 2026-04-24 03:52 | 34.28958 | -115.31064 | 16531 ft | 203 kts | 282° |
| 2026-04-24 03:53 | 34.29294 | -115.32730 | 16536 ft | 204 kts | 282° |
| 2026-04-24 03:53 | 34.29626 | -115.34381 | 16537 ft | 204 kts | 282° |
| 2026-04-24 03:53 | 34.29963 | -115.36053 | 16536 ft | 205 kts | 282° |
| 2026-04-24 03:53 | 34.30300 | -115.37724 | 16537 ft | 204 kts | 282° |
| 2026-04-24 03:54 | 34.30636 | -115.39394 | 16539 ft | 204 kts | 282° |
| 2026-04-24 03:54 | 34.30971 | -115.41062 | 16541 ft | 204 kts | 282° |
| 2026-04-24 03:54 | 34.31306 | -115.42728 | 16542 ft | 204 kts | 282° |
| 2026-04-24 03:54 | 34.31640 | -115.44391 | 16543 ft | 204 kts | 282° |
| 2026-04-24 03:55 | 34.31974 | -115.46057 | 16548 ft | 204 kts | 282° |
| 2026-04-24 03:55 | 34.32308 | -115.47725 | 16551 ft | 204 kts | 282° |
| 2026-04-24 03:55 | 34.32641 | -115.49391 | 16553 ft | 204 kts | 282° |
| 2026-04-24 03:55 | 34.32975 | -115.51057 | 16553 ft | 204 kts | 282° |
| 2026-04-24 03:56 | 34.33307 | -115.52722 | 16554 ft | 203 kts | 282° |
| 2026-04-24 03:56 | 34.33640 | -115.54385 | 16559 ft | 203 kts | 282° |
| 2026-04-24 03:56 | 34.33972 | -115.56046 | 16562 ft | 203 kts | 282° |
| 2026-04-24 03:56 | 34.34303 | -115.57705 | 16562 ft | 203 kts | 282° |
| 2026-04-24 03:57 | 34.34634 | -115.59367 | 16565 ft | 203 kts | 282° |
| 2026-04-24 03:57 | 34.34965 | -115.61022 | 16567 ft | 203 kts | 282° |
| 2026-04-24 03:57 | 34.35296 | -115.62682 | 16570 ft | 203 kts | 282° |
| 2026-04-24 03:57 | 34.35626 | -115.64345 | 16570 ft | 203 kts | 282° |
| 2026-04-24 03:58 | 34.35956 | -115.66006 | 16569 ft | 203 kts | 282° |
| 2026-04-24 03:58 | 34.36285 | -115.67664 | 16570 ft | 202 kts | 282° |
| 2026-04-24 03:58 | 34.36615 | -115.69324 | 16570 ft | 202 kts | 282° |
| 2026-04-24 03:58 | 34.36938 | -115.70954 | 16576 ft | 202 kts | 282° |
| 2026-04-24 03:59 | 34.37264 | -115.72605 | 16577 ft | 201 kts | 282° |
| 2026-04-24 03:59 | 34.37589 | -115.74251 | 16577 ft | 201 kts | 282° |
| 2026-04-24 03:59 | 34.37914 | -115.75895 | 16576 ft | 201 kts | 282° |
| 2026-04-24 03:59 | 34.38239 | -115.77535 | 16575 ft | 200 kts | 282° |
| 2026-04-24 04:00 | 34.38561 | -115.79173 | 16587 ft | 200 kts | 282° |
| 2026-04-24 04:00 | 34.38884 | -115.80817 | 16600 ft | 201 kts | 282° |
| 2026-04-24 04:00 | 34.39210 | -115.82470 | 16597 ft | 202 kts | 282° |
| 2026-04-24 04:00 | 34.39538 | -115.84131 | 16590 ft | 203 kts | 282° |
| 2026-04-24 04:01 | 34.39865 | -115.85792 | 16588 ft | 203 kts | 282° |
| 2026-04-24 04:01 | 34.40194 | -115.87458 | 16590 ft | 203 kts | 282° |
| 2026-04-24 04:01 | 34.40521 | -115.89118 | 16586 ft | 202 kts | 282° |
| 2026-04-24 04:01 | 34.40846 | -115.90776 | 16593 ft | 202 kts | 282° |
| 2026-04-24 04:02 | 34.41173 | -115.92434 | 16596 ft | 202 kts | 282° |
| 2026-04-24 04:02 | 34.41498 | -115.94087 | 16596 ft | 202 kts | 282° |
| 2026-04-24 04:02 | 34.41821 | -115.95739 | 16598 ft | 201 kts | 282° |
| 2026-04-24 04:02 | 34.42143 | -115.97388 | 16597 ft | 201 kts | 282° |
| 2026-04-24 04:03 | 34.42466 | -115.99037 | 16599 ft | 201 kts | 282° |
| 2026-04-24 04:03 | 34.42789 | -116.00686 | 16598 ft | 201 kts | 282° |
| 2026-04-24 04:03 | 34.43110 | -116.02332 | 16590 ft | 201 kts | 282° |
| 2026-04-24 04:03 | 34.43431 | -116.03982 | 16591 ft | 201 kts | 282° |
| 2026-04-24 04:04 | 34.43749 | -116.05611 | 16600 ft | 202 kts | 282° |
| 2026-04-24 04:04 | 34.44073 | -116.07266 | 16594 ft | 202 kts | 282° |
| 2026-04-24 04:04 | 34.44397 | -116.08926 | 16602 ft | 203 kts | 282° |
| 2026-04-24 04:04 | 34.44720 | -116.10585 | 16609 ft | 202 kts | 282° |
| 2026-04-24 04:05 | 34.45043 | -116.12250 | 16616 ft | 203 kts | 282° |
| 2026-04-24 04:05 | 34.45367 | -116.13912 | 16617 ft | 202 kts | 282° |
| 2026-04-24 04:05 | 34.45691 | -116.15576 | 16612 ft | 202 kts | 282° |
| 2026-04-24 04:05 | 34.46012 | -116.17237 | 16618 ft | 203 kts | 282° |
| 2026-04-24 04:06 | 34.46334 | -116.18907 | 16622 ft | 204 kts | 282° |
| 2026-04-24 04:06 | 34.46660 | -116.20581 | 16618 ft | 204 kts | 282° |
| 2026-04-24 04:06 | 34.46986 | -116.22260 | 16617 ft | 204 kts | 282° |
| 2026-04-24 04:06 | 34.47310 | -116.23936 | 16617 ft | 204 kts | 282° |
| 2026-04-24 04:07 | 34.47635 | -116.25610 | 16619 ft | 204 kts | 282° |
| 2026-04-24 04:07 | 34.47959 | -116.27288 | 16618 ft | 205 kts | 282° |
| 2026-04-24 04:07 | 34.48282 | -116.28967 | 16619 ft | 204 kts | 282° |
| 2026-04-24 04:07 | 34.48606 | -116.30647 | 16618 ft | 205 kts | 282° |
| 2026-04-24 04:08 | 34.48929 | -116.32325 | 16617 ft | 205 kts | 282° |
| 2026-04-24 04:08 | 34.49249 | -116.33989 | 16617 ft | 205 kts | 282° |
| 2026-04-24 04:08 | 34.49573 | -116.35672 | 16616 ft | 205 kts | 282° |
| 2026-04-24 04:08 | 34.49896 | -116.37357 | 16609 ft | 206 kts | 282° |
| 2026-04-24 04:09 | 34.50220 | -116.39045 | 16610 ft | 206 kts | 282° |
| 2026-04-24 04:09 | 34.50544 | -116.40737 | 16607 ft | 206 kts | 282° |
| 2026-04-24 04:09 | 34.50869 | -116.42427 | 16606 ft | 206 kts | 282° |
| 2026-04-24 04:09 | 34.51194 | -116.44120 | 16616 ft | 206 kts | 282° |
| 2026-04-24 04:10 | 34.51519 | -116.45818 | 16613 ft | 207 kts | 282° |
| 2026-04-24 04:10 | 34.51845 | -116.47517 | 16604 ft | 207 kts | 282° |
| 2026-04-24 04:10 | 34.52170 | -116.49217 | 16603 ft | 207 kts | 282° |
| 2026-04-24 04:11 | 34.52824 | -116.52641 | 16528 ft | 209 kts | 282° |
| 2026-04-24 04:11 | 34.53151 | -116.54359 | 16511 ft | 209 kts | 282° |
| 2026-04-24 04:11 | 34.53478 | -116.56072 | 16502 ft | 208 kts | 282° |
| 2026-04-24 04:11 | 34.53804 | -116.57782 | 16503 ft | 208 kts | 282° |
| 2026-04-24 04:12 | 34.54128 | -116.59491 | 16496 ft | 208 kts | 282° |
| 2026-04-24 04:12 | 34.54452 | -116.61200 | 16493 ft | 208 kts | 282° |
| 2026-04-24 04:12 | 34.54776 | -116.62907 | 16492 ft | 208 kts | 282° |
| 2026-04-24 04:12 | 34.55101 | -116.64622 | 16491 ft | 208 kts | 282° |
| 2026-04-24 04:13 | 34.55425 | -116.66328 | 16490 ft | 208 kts | 282° |
| 2026-04-24 04:13 | 34.55749 | -116.68038 | 16494 ft | 208 kts | 282° |
| 2026-04-24 04:13 | 34.56073 | -116.69749 | 16491 ft | 208 kts | 282° |
| 2026-04-24 04:13 | 34.56398 | -116.71460 | 16494 ft | 208 kts | 282° |
| 2026-04-24 04:14 | 34.56723 | -116.73175 | 16493 ft | 209 kts | 282° |
| 2026-04-24 04:14 | 34.57047 | -116.74893 | 16486 ft | 209 kts | 282° |
| 2026-04-24 04:14 | 34.57372 | -116.76615 | 16483 ft | 209 kts | 282° |
| 2026-04-24 04:14 | 34.57691 | -116.78306 | 16480 ft | 209 kts | 282° |
| 2026-04-24 04:15 | 34.58015 | -116.80022 | 16481 ft | 208 kts | 282° |
| 2026-04-24 04:15 | 34.58336 | -116.81733 | 16481 ft | 208 kts | 282° |
| 2026-04-24 04:15 | 34.58657 | -116.83443 | 16493 ft | 208 kts | 282° |
| 2026-04-24 04:15 | 34.58980 | -116.85159 | 16493 ft | 209 kts | 282° |
| 2026-04-24 04:16 | 34.59302 | -116.86879 | 16491 ft | 209 kts | 282° |
| 2026-04-24 04:16 | 34.59625 | -116.88605 | 16487 ft | 209 kts | 282° |
| 2026-04-24 04:16 | 34.59948 | -116.90324 | 16491 ft | 209 kts | 282° |
| 2026-04-24 04:16 | 34.60270 | -116.92043 | 16490 ft | 209 kts | 282° |
| 2026-04-24 04:17 | 34.60592 | -116.93763 | 16496 ft | 209 kts | 282° |
| 2026-04-24 04:17 | 34.60914 | -116.95489 | 16499 ft | 209 kts | 282° |
| 2026-04-24 04:17 | 34.61235 | -116.97211 | 16498 ft | 209 kts | 282° |
| 2026-04-24 04:17 | 34.61557 | -116.98935 | 16499 ft | 209 kts | 282° |
| 2026-04-24 04:18 | 34.61879 | -117.00657 | 16499 ft | 209 kts | 282° |
| 2026-04-24 04:18 | 34.62199 | -117.02375 | 16497 ft | 209 kts | 282° |
| 2026-04-24 04:18 | 34.62516 | -117.04076 | 16494 ft | 209 kts | 282° |
| 2026-04-24 04:18 | 34.62836 | -117.05797 | 16499 ft | 208 kts | 282° |
| 2026-04-24 04:19 | 34.63156 | -117.07508 | 16505 ft | 208 kts | 282° |
| 2026-04-24 04:19 | 34.63475 | -117.09228 | 16514 ft | 209 kts | 282° |
| 2026-04-24 04:19 | 34.63796 | -117.10954 | 16513 ft | 210 kts | 282° |
| 2026-04-24 04:19 | 34.64116 | -117.12684 | 16514 ft | 210 kts | 282° |
| 2026-04-24 04:20 | 34.64437 | -117.14417 | 16519 ft | 210 kts | 282° |
| 2026-04-24 04:20 | 34.64757 | -117.16149 | 16519 ft | 210 kts | 282° |
| 2026-04-24 04:20 | 34.65077 | -117.17882 | 16517 ft | 210 kts | 282° |
| 2026-04-24 04:20 | 34.65397 | -117.19618 | 16521 ft | 210 kts | 282° |
| 2026-04-24 04:21 | 34.65718 | -117.21355 | 16524 ft | 210 kts | 282° |
| 2026-04-24 04:21 | 34.66037 | -117.23084 | 16524 ft | 210 kts | 282° |
| 2026-04-24 04:21 | 34.66357 | -117.24819 | 16524 ft | 210 kts | 282° |
| 2026-04-24 04:21 | 34.66675 | -117.26548 | 16523 ft | 210 kts | 282° |
| 2026-04-24 04:22 | 34.66887 | -117.27693 | 16529 ft | 210 kts | 282° |
| 2026-04-24 04:22 | 34.67309 | -117.29987 | 16531 ft | 210 kts | 282° |
| 2026-04-24 04:22 | 34.67524 | -117.31157 | 16530 ft | 210 kts | 282° |
| 2026-04-24 04:22 | 34.67946 | -117.33459 | 16529 ft | 211 kts | 282° |
| 2026-04-24 04:23 | 34.68265 | -117.35197 | 16527 ft | 211 kts | 282° |
| 2026-04-24 04:23 | 34.68583 | -117.36934 | 16526 ft | 211 kts | 282° |
| 2026-04-24 04:23 | 34.68901 | -117.38669 | 16526 ft | 210 kts | 282° |
| 2026-04-24 04:23 | 34.69116 | -117.39841 | 16527 ft | 210 kts | 282° |
| 2026-04-24 04:24 | 34.69429 | -117.41552 | 16528 ft | 210 kts | 282° |
| 2026-04-24 04:24 | 34.69745 | -117.43285 | 16526 ft | 210 kts | 282° |
| 2026-04-24 04:24 | 34.70065 | -117.45044 | 16527 ft | 210 kts | 282° |
| 2026-04-24 04:24 | 34.70378 | -117.46760 | 16527 ft | 210 kts | 282° |
| 2026-04-24 04:25 | 34.70692 | -117.48494 | 16527 ft | 210 kts | 282° |
| 2026-04-24 04:25 | 34.71008 | -117.50227 | 16527 ft | 210 kts | 282° |
| 2026-04-24 04:25 | 34.71324 | -117.51960 | 16527 ft | 210 kts | 282° |
| 2026-04-24 04:25 | 34.71640 | -117.53696 | 16527 ft | 210 kts | 282° |
| 2026-04-24 04:26 | 34.71954 | -117.55428 | 16523 ft | 210 kts | 282° |
| 2026-04-24 04:26 | 34.72269 | -117.57161 | 16522 ft | 210 kts | 282° |
| 2026-04-24 04:26 | 34.72584 | -117.58898 | 16521 ft | 210 kts | 282° |
| 2026-04-24 04:26 | 34.72898 | -117.60633 | 16523 ft | 210 kts | 282° |
| 2026-04-24 04:27 | 34.73212 | -117.62367 | 16521 ft | 211 kts | 282° |
| 2026-04-24 04:27 | 34.73524 | -117.64088 | 16518 ft | 211 kts | 282° |
| 2026-04-24 04:27 | 34.73838 | -117.65835 | 16512 ft | 211 kts | 282° |
| 2026-04-24 04:27 | 34.74154 | -117.67577 | 16508 ft | 211 kts | 282° |
| 2026-04-24 04:28 | 34.74469 | -117.69321 | 16507 ft | 210 kts | 282° |
| 2026-04-24 04:28 | 34.74781 | -117.71058 | 16508 ft | 210 kts | 282° |
| 2026-04-24 04:28 | 34.75093 | -117.72790 | 16510 ft | 210 kts | 282° |
| 2026-04-24 04:28 | 34.75404 | -117.74526 | 16510 ft | 210 kts | 282° |
| 2026-04-24 04:29 | 34.75716 | -117.76261 | 16506 ft | 210 kts | 282° |
| 2026-04-24 04:29 | 34.76028 | -117.78001 | 16502 ft | 210 kts | 282° |
| 2026-04-24 04:29 | 34.76340 | -117.79731 | 16501 ft | 210 kts | 282° |
| 2026-04-24 04:29 | 34.76651 | -117.81465 | 16502 ft | 210 kts | 282° |
| 2026-04-24 04:30 | 34.76961 | -117.83201 | 16503 ft | 210 kts | 282° |
| 2026-04-24 04:30 | 34.77272 | -117.84944 | 16502 ft | 211 kts | 282° |
| 2026-04-24 04:30 | 34.77580 | -117.86665 | 16501 ft | 211 kts | 282° |
| 2026-04-24 04:30 | 34.77891 | -117.88407 | 16501 ft | 211 kts | 282° |
| 2026-04-24 04:31 | 34.78203 | -117.90153 | 16499 ft | 211 kts | 282° |
| 2026-04-24 04:31 | 34.78514 | -117.91901 | 16497 ft | 211 kts | 282° |
| 2026-04-24 04:31 | 34.78825 | -117.93647 | 16499 ft | 211 kts | 282° |
| 2026-04-24 04:31 | 34.79034 | -117.94827 | 16499 ft | 211 kts | 282° |
| 2026-04-24 04:32 | 34.79446 | -117.97136 | 16500 ft | 211 kts | 282° |
| 2026-04-24 04:32 | 34.79755 | -117.98879 | 16504 ft | 211 kts | 282° |
| 2026-04-24 04:32 | 34.80064 | -118.00621 | 16506 ft | 211 kts | 282° |
| 2026-04-24 04:32 | 34.80374 | -118.02365 | 16509 ft | 211 kts | 281° |
| 2026-04-24 04:33 | 34.80683 | -118.04111 | 16509 ft | 211 kts | 281° |